Time,TemperatureF,DewpointF,PressureIn,WindDirection,WindDirectionDegrees,WindSpeedMPH,WindSpeedGustMPH,Humidity,HourlyPrecipIn,Conditions,Clouds,dailyrainin,SoftwareType,DateUTC
2013-01-13 00:19:00,44.6,38.2,30.13,North,8,0.0,0.0,78,0.00,,---,0.00,VWS V12.08,2013-01-13 05:19:00,
2013-01-13 00:39:00,44.6,38.2,30.13,North,8,0.0,0.0,78,0.00,,---,0.00,VWS V12.08,2013-01-13 05:39:00,
2013-01-13 00:59:00,44.6,38.2,30.13,North,9,0.0,0.0,78,0.00,,---,0.00,VWS V12.08,2013-01-13 05:59:00,
2013-01-13 01:19:00,44.6,38.2,30.13,ESE,117,0.0,0.0,78,0.00,,---,0.00,VWS V12.08,2013-01-13 06:19:00,
2013-01-13 01:39:00,44.4,38.0,30.10,SE,133,0.0,5.4,78,0.00,,---,0.00,VWS V12.08,2013-01-13 06:39:00,
2013-01-13 01:59:00,44.2,38.2,30.13,SE,134,0.0,0.0,79,0.00,,---,0.00,VWS V12.08,2013-01-13 06:59:00,
2013-01-13 02:19:00,44.2,38.2,30.13,SE,133,0.0,0.0,79,0.00,,---,0.00,VWS V12.08,2013-01-13 07:19:00,
2013-01-13 02:39:00,44.1,38.0,30.13,SE,134,0.0,0.0,79,0.00,,---,0.00,VWS V12.08,2013-01-13 07:39:00,
2013-01-13 02:59:00,44.1,38.0,30.16,SE,133,0.0,0.0,79,0.00,,---,0.00,VWS V12.08,2013-01-13 07:59:00,
2013-01-13 03:19:00,44.2,38.2,30.13,SE,134,0.0,0.0,79,0.00,,---,0.00,VWS V12.08,2013-01-13 08:19:00,
2013-01-13 03:39:00,44.1,38.0,30.13,SE,133,0.0,0.0,79,0.00,,---,0.00,VWS V12.08,2013-01-13 08:39:00,
2013-01-13 03:59:00,44.1,38.0,30.10,ESE,113,3.1,4.9,79,0.00,,---,0.00,VWS V12.08,2013-01-13 08:59:00,
2013-01-13 04:19:00,44.1,38.0,30.10,ESE,111,0.0,3.6,79,0.00,,---,0.00,VWS V12.08,2013-01-13 09:19:00,
2013-01-13 04:39:00,44.1,38.0,30.10,ESE,104,0.0,4.0,79,0.00,,---,0.00,VWS V12.08,2013-01-13 09:39:00,
2013-01-13 04:59:00,44.1,38.0,30.10,ESE,105,2.2,4.9,79,0.00,,---,0.00,VWS V12.08,2013-01-13 09:59:00,
2013-01-13 05:19:00,44.1,38.0,30.10,East,87,0.0,4.0,79,0.00,,---,0.00,VWS V12.08,2013-01-13 10:19:00,
2013-01-13 05:39:00,44.2,38.2,30.10,East,101,0.0,4.9,79,0.00,,---,0.00,VWS V12.08,2013-01-13 10:39:00,
2013-01-13 05:59:00,44.6,38.6,30.10,ESE,115,0.0,4.9,79,0.00,,---,0.00,VWS V12.08,2013-01-13 10:59:00,
2013-01-13 06:19:00,44.6,38.6,30.10,ESE,122,3.1,4.9,79,0.00,,---,0.00,VWS V12.08,2013-01-13 11:19:00,
2013-01-13 06:38:00,44.6,38.6,30.10,ESE,111,0.0,4.9,79,0.00,,---,0.00,VWS V12.08,2013-01-13 11:38:00,
2013-01-13 06:59:00,44.8,38.7,30.10,East,101,0.0,0.0,79,0.00,,---,0.00,VWS V12.08,2013-01-13 11:59:00,
2013-01-13 07:18:00,45.0,38.9,30.10,SE,146,0.0,4.0,79,0.00,,---,0.00,VWS V12.08,2013-01-13 12:18:00,
2013-01-13 07:39:00,45.0,38.9,30.10,East,93,0.0,3.6,79,0.00,,---,0.00,VWS V12.08,2013-01-13 12:39:00,
2013-01-13 07:59:00,45.0,38.9,30.10,ESE,114,0.0,4.9,79,0.00,,---,0.00,VWS V12.08,2013-01-13 12:59:00,
2013-01-13 08:18:00,45.1,39.1,30.10,South,187,0.0,3.6,79,0.00,,---,0.00,VWS V12.08,2013-01-13 13:18:00,
2013-01-13 08:38:00,45.1,39.1,30.10,South,190,0.0,0.0,79,0.00,,---,0.00,VWS V12.08,2013-01-13 13:38:00,
2013-01-13 08:58:00,45.5,39.4,30.13,SSW,212,0.0,4.0,79,0.00,,---,0.00,VWS V12.08,2013-01-13 13:58:00,
2013-01-13 09:18:00,45.9,39.8,30.13,West,267,0.0,5.4,79,0.00,,---,0.00,VWS V12.08,2013-01-13 14:18:00,
2013-01-13 09:38:00,46.0,40.0,30.13,East,100,0.0,4.9,79,0.00,,---,0.00,VWS V12.08,2013-01-13 14:38:00,
2013-01-13 09:59:00,46.6,40.1,30.13,SE,126,0.0,3.6,78,0.00,,---,0.00,VWS V12.08,2013-01-13 14:59:00,
2013-01-13 10:18:00,46.8,40.3,30.13,ESE,122,0.0,4.9,78,0.00,,---,0.00,VWS V12.08,2013-01-13 15:18:00,
2013-01-13 10:38:00,47.3,40.8,30.13,ESE,102,4.0,5.4,78,0.00,,---,0.00,VWS V12.08,2013-01-13 15:38:00,
2013-01-13 10:58:00,47.3,41.2,30.13,SSE,150,3.6,6.3,79,0.00,,---,0.00,VWS V12.08,2013-01-13 15:58:00,
2013-01-13 11:18:00,47.3,41.2,30.13,SSE,152,3.1,6.3,79,0.00,,---,0.00,VWS V12.08,2013-01-13 16:18:00,
2013-01-13 11:38:00,47.3,41.2,30.10,ESE,117,0.0,3.6,79,0.00,,---,0.00,VWS V12.08,2013-01-13 16:38:00,
2013-01-13 11:59:00,47.3,41.2,30.10,WSW,242,0.0,6.3,79,0.00,,---,0.00,VWS V12.08,2013-01-13 16:59:00,
2013-01-13 12:18:00,47.3,41.2,30.10,SE,135,3.1,4.0,79,0.00,,---,0.00,VWS V12.08,2013-01-13 17:18:00,
2013-01-13 12:38:00,47.3,41.2,30.07,SE,130,2.7,5.8,79,0.00,,---,0.00,VWS V12.08,2013-01-13 17:38:00,
2013-01-13 12:59:00,47.7,41.5,30.07,ESE,120,0.0,5.4,79,0.00,,---,0.00,VWS V12.08,2013-01-13 17:59:00,
2013-01-13 13:19:00,48.2,42.1,30.04,East,99,3.1,5.8,79,0.00,,---,0.00,VWS V12.08,2013-01-13 18:19:00,
2013-01-13 13:39:00,48.0,41.5,30.04,SE,126,3.1,4.0,78,0.00,,---,0.00,VWS V12.08,2013-01-13 18:39:00,
2013-01-13 13:59:00,47.8,41.0,30.04,SW,220,0.0,4.0,77,0.00,,---,0.00,VWS V12.08,2013-01-13 18:59:00,
2013-01-13 14:19:00,48.0,41.5,30.04,ENE,73,4.0,4.0,78,0.00,,---,0.00,VWS V12.08,2013-01-13 19:19:00,
2013-01-13 14:39:00,48.2,41.7,30.04,ESE,102,0.0,4.0,78,0.00,,---,0.00,VWS V12.08,2013-01-13 19:39:00,
2013-01-13 14:59:00,48.2,41.7,30.04,SSW,206,0.0,4.0,78,0.00,,---,0.00,VWS V12.08,2013-01-13 19:59:00,
2013-01-13 15:19:00,48.0,41.5,30.04,SE,140,0.0,5.8,78,0.00,,---,0.00,VWS V12.08,2013-01-13 20:19:00,
2013-01-13 15:39:00,48.0,41.9,30.04,SE,139,0.0,4.9,79,0.00,,---,0.00,VWS V12.08,2013-01-13 20:39:00,
2013-01-13 15:59:00,48.2,41.7,30.04,SE,136,0.0,5.4,78,0.00,,---,0.00,VWS V12.08,2013-01-13 20:59:00,
2013-01-13 16:19:00,48.2,41.7,30.04,SSE,167,0.0,4.0,78,0.00,,---,0.00,VWS V12.08,2013-01-13 21:19:00,
2013-01-13 16:39:00,48.2,42.1,30.04,ENE,76,0.0,0.0,79,0.00,,---,0.00,VWS V12.08,2013-01-13 21:39:00,
2013-01-13 17:00:00,48.2,42.1,30.04,SE,126,0.0,0.0,79,0.00,,---,0.00,VWS V12.08,2013-01-13 22:00:00,
2013-01-13 17:19:00,48.2,42.1,30.04,WSW,257,0.0,0.0,79,0.00,,---,0.00,VWS V12.08,2013-01-13 22:19:00,
2013-01-13 17:39:00,48.4,42.2,30.04,SSW,195,0.0,4.0,79,0.00,,---,0.00,VWS V12.08,2013-01-13 22:39:00,
2013-01-13 17:59:00,48.4,42.2,30.01,SW,223,0.0,4.0,79,0.00,,---,0.00,VWS V12.08,2013-01-13 22:59:00,
2013-01-13 18:19:00,48.4,42.2,30.04,WSW,258,0.0,0.0,79,0.00,,---,0.00,VWS V12.08,2013-01-13 23:19:00,
2013-01-13 18:39:00,48.4,42.2,30.04,WSW,241,0.0,0.0,79,0.00,,---,0.00,VWS V12.08,2013-01-13 23:39:00,
2013-01-13 18:59:00,48.6,42.4,30.04,West,278,0.0,0.0,79,0.00,,---,0.00,VWS V12.08,2013-01-13 23:59:00,
2013-01-13 19:19:00,48.6,42.4,30.04,WNW,296,0.0,3.6,79,0.00,,---,0.00,VWS V12.08,2013-01-14 00:19:00,
2013-01-13 19:39:00,48.4,42.2,30.01,WNW,296,0.0,0.0,79,0.00,,---,0.00,VWS V12.08,2013-01-14 00:39:00,
2013-01-13 19:59:00,48.4,42.2,30.01,WNW,296,0.0,0.0,79,0.00,,---,0.00,VWS V12.08,2013-01-14 00:59:00,
2013-01-13 20:19:00,48.2,42.1,30.01,WNW,297,0.0,0.0,79,0.00,,---,0.00,VWS V12.08,2013-01-14 01:19:00,
2013-01-13 20:39:00,48.4,42.2,30.01,WNW,296,0.0,0.0,79,0.00,,---,0.00,VWS V12.08,2013-01-14 01:39:00,
2013-01-13 20:59:00,48.4,42.2,30.01,WNW,296,0.0,0.0,79,0.00,,---,0.00,VWS V12.08,2013-01-14 01:59:00,
2013-01-13 21:19:00,48.2,41.7,29.98,NNW,341,0.0,0.0,78,0.00,,---,0.00,VWS V12.08,2013-01-14 02:19:00,
2013-01-13 21:39:00,48.4,41.9,30.01,NNW,341,0.0,0.0,78,0.00,,---,0.00,VWS V12.08,2013-01-14 02:39:00,
2013-01-13 21:59:00,48.4,41.9,29.98,ESE,118,0.0,0.0,78,0.00,,---,0.00,VWS V12.08,2013-01-14 02:59:00,
2013-01-13 22:19:00,48.4,41.9,30.01,ESE,118,0.0,0.0,78,0.00,,---,0.00,VWS V12.08,2013-01-14 03:19:00,
2013-01-13 22:39:00,48.2,41.7,30.01,ESE,119,0.0,0.0,78,0.00,,---,0.00,VWS V12.08,2013-01-14 03:39:00,
2013-01-13 22:59:00,48.4,41.9,29.98,ESE,118,0.0,0.0,78,0.00,,---,0.00,VWS V12.08,2013-01-14 03:59:00,
2013-01-13 23:19:00,48.4,41.9,29.98,ESE,118,0.0,0.0,78,0.00,,---,0.00,VWS V12.08,2013-01-14 04:19:00,
2013-01-13 23:39:00,48.4,41.9,29.98,ESE,117,0.0,0.0,78,0.00,,---,0.00,VWS V12.08,2013-01-14 04:39:00,
2013-01-13 23:59:00,48.6,42.1,29.98,ESE,117,0.0,0.0,78,0.00,,---,0.00,VWS V12.08,2013-01-14 04:59:00,